sensor_id;sensor_type;location;lat;lon;timestamp;P1;durP1;ratioP1;P2;durP2;ratioP2
73072;SDS011;61260;51.090;-1.786;2022-07-06T00:01:49;1.30;;;0.70;;
73072;SDS011;61260;51.090;-1.786;2022-07-06T00:04:17;1.50;;;0.80;;
73072;SDS011;61260;51.090;-1.786;2022-07-06T00:06:45;1.20;;;0.70;;
73072;SDS011;61260;51.090;-1.786;2022-07-06T00:09:13;1.20;;;0.90;;
73072;SDS011;61260;51.090;-1.786;2022-07-06T00:11:40;1.30;;;0.60;;
73072;SDS011;61260;51.090;-1.786;2022-07-06T00:14:08;2.20;;;0.80;;
73072;SDS011;61260;51.090;-1.786;2022-07-06T00:16:36;2.10;;;0.80;;
73072;SDS011;61260;51.090;-1.786;2022-07-06T00:19:04;1.30;;;1.00;;
73072;SDS011;61260;51.090;-1.786;2022-07-06T00:21:32;1.30;;;0.70;;
73072;SDS011;61260;51.090;-1.786;2022-07-06T00:24:00;1.10;;;0.60;;
73072;SDS011;61260;51.090;-1.786;2022-07-06T00:26:28;0.70;;;0.60;;
73072;SDS011;61260;51.090;-1.786;2022-07-06T00:28:55;1.30;;;0.80;;
73072;SDS011;61260;51.090;-1.786;2022-07-06T00:31:23;1.10;;;0.70;;
73072;SDS011;61260;51.090;-1.786;2022-07-06T00:33:51;2.10;;;0.80;;
73072;SDS011;61260;51.090;-1.786;2022-07-06T00:36:19;1.60;;;0.90;;
73072;SDS011;61260;51.090;-1.786;2022-07-06T00:38:46;1.30;;;0.70;;
73072;SDS011;61260;51.090;-1.786;2022-07-06T00:41:14;0.70;;;0.60;;
73072;SDS011;61260;51.090;-1.786;2022-07-06T00:43:47;1.70;;;0.70;;
73072;SDS011;61260;51.090;-1.786;2022-07-06T00:46:16;1.30;;;0.70;;
73072;SDS011;61260;51.090;-1.786;2022-07-06T00:48:44;0.90;;;0.60;;
73072;SDS011;61260;51.090;-1.786;2022-07-06T00:51:12;1.50;;;0.90;;
73072;SDS011;61260;51.090;-1.786;2022-07-06T00:53:41;1.70;;;0.90;;
73072;SDS011;61260;51.090;-1.786;2022-07-06T00:56:10;0.90;;;0.80;;
73072;SDS011;61260;51.090;-1.786;2022-07-06T00:58:38;1.00;;;0.70;;
73072;SDS011;61260;51.090;-1.786;2022-07-06T01:01:06;1.30;;;0.70;;
73072;SDS011;61260;51.090;-1.786;2022-07-06T01:03:34;2.30;;;0.90;;
73072;SDS011;61260;51.090;-1.786;2022-07-06T01:06:03;1.40;;;1.00;;
73072;SDS011;61260;51.090;-1.786;2022-07-06T01:08:31;1.20;;;0.70;;
73072;SDS011;61260;51.090;-1.786;2022-07-06T01:10:59;2.70;;;1.20;;
73072;SDS011;61260;51.090;-1.786;2022-07-06T01:13:28;1.60;;;1.00;;
73072;SDS011;61260;51.090;-1.786;2022-07-06T01:15:59;1.80;;;1.00;;
73072;SDS011;61260;51.090;-1.786;2022-07-06T01:18:27;1.80;;;0.60;;
73072;SDS011;61260;51.090;-1.786;2022-07-06T01:21:05;1.40;;;0.90;;
73072;SDS011;61260;51.090;-1.786;2022-07-06T01:23:38;1.50;;;1.10;;
73072;SDS011;61260;51.090;-1.786;2022-07-06T01:28:36;1.30;;;0.90;;
73072;SDS011;61260;51.090;-1.786;2022-07-06T01:31:04;1.10;;;0.70;;
73072;SDS011;61260;51.090;-1.786;2022-07-06T01:33:32;1.40;;;0.90;;
73072;SDS011;61260;51.090;-1.786;2022-07-06T01:36:00;2.40;;;1.00;;
73072;SDS011;61260;51.090;-1.786;2022-07-06T01:38:28;1.50;;;0.90;;
73072;SDS011;61260;51.090;-1.786;2022-07-06T01:40:55;1.10;;;0.90;;
73072;SDS011;61260;51.090;-1.786;2022-07-06T01:43:23;1.60;;;0.90;;
73072;SDS011;61260;51.090;-1.786;2022-07-06T01:45:51;1.50;;;0.80;;
73072;SDS011;61260;51.090;-1.786;2022-07-06T01:48:18;1.30;;;0.80;;
73072;SDS011;61260;51.090;-1.786;2022-07-06T01:50:46;1.00;;;0.80;;
73072;SDS011;61260;51.090;-1.786;2022-07-06T01:53:14;2.20;;;0.80;;
73072;SDS011;61260;51.090;-1.786;2022-07-06T01:55:42;1.30;;;0.90;;
73072;SDS011;61260;51.090;-1.786;2022-07-06T01:58:10;0.80;;;0.70;;
73072;SDS011;61260;51.090;-1.786;2022-07-06T02:00:37;2.50;;;0.80;;
73072;SDS011;61260;51.090;-1.786;2022-07-06T02:03:05;1.70;;;0.80;;
73072;SDS011;61260;51.090;-1.786;2022-07-06T02:05:33;2.20;;;0.80;;
73072;SDS011;61260;51.090;-1.786;2022-07-06T02:08:00;2.60;;;0.70;;
73072;SDS011;61260;51.090;-1.786;2022-07-06T02:10:28;1.20;;;0.70;;
73072;SDS011;61260;51.090;-1.786;2022-07-06T02:12:56;1.60;;;0.70;;
73072;SDS011;61260;51.090;-1.786;2022-07-06T02:15:24;1.00;;;0.70;;
73072;SDS011;61260;51.090;-1.786;2022-07-06T02:17:52;1.40;;;0.90;;
73072;SDS011;61260;51.090;-1.786;2022-07-06T02:20:19;1.60;;;0.90;;
73072;SDS011;61260;51.090;-1.786;2022-07-06T02:22:47;1.70;;;0.80;;
73072;SDS011;61260;51.090;-1.786;2022-07-06T02:25:15;1.40;;;0.90;;
73072;SDS011;61260;51.090;-1.786;2022-07-06T02:27:43;1.00;;;0.80;;
73072;SDS011;61260;51.090;-1.786;2022-07-06T02:30:11;1.70;;;0.70;;
73072;SDS011;61260;51.090;-1.786;2022-07-06T02:32:39;1.30;;;0.80;;
73072;SDS011;61260;51.090;-1.786;2022-07-06T02:35:07;1.30;;;0.80;;
73072;SDS011;61260;51.090;-1.786;2022-07-06T02:37:35;1.40;;;0.80;;
73072;SDS011;61260;51.090;-1.786;2022-07-06T02:40:04;2.00;;;1.10;;
73072;SDS011;61260;51.090;-1.786;2022-07-06T02:42:33;1.40;;;0.90;;
73072;SDS011;61260;51.090;-1.786;2022-07-06T02:45:01;1.30;;;0.90;;
73072;SDS011;61260;51.090;-1.786;2022-07-06T02:47:29;1.60;;;1.00;;
73072;SDS011;61260;51.090;-1.786;2022-07-06T02:49:56;1.40;;;1.00;;
73072;SDS011;61260;51.090;-1.786;2022-07-06T02:52:24;3.60;;;0.90;;
73072;SDS011;61260;51.090;-1.786;2022-07-06T02:54:52;1.50;;;0.80;;
73072;SDS011;61260;51.090;-1.786;2022-07-06T02:57:20;1.60;;;1.10;;
73072;SDS011;61260;51.090;-1.786;2022-07-06T02:59:47;2.70;;;1.00;;
73072;SDS011;61260;51.090;-1.786;2022-07-06T03:02:15;1.20;;;0.90;;
73072;SDS011;61260;51.090;-1.786;2022-07-06T03:04:43;1.60;;;1.10;;
73072;SDS011;61260;51.090;-1.786;2022-07-06T03:07:11;2.50;;;1.00;;
73072;SDS011;61260;51.090;-1.786;2022-07-06T03:09:39;2.40;;;0.90;;
73072;SDS011;61260;51.090;-1.786;2022-07-06T03:12:08;2.40;;;0.90;;
73072;SDS011;61260;51.090;-1.786;2022-07-06T03:14:36;2.20;;;1.00;;
73072;SDS011;61260;51.090;-1.786;2022-07-06T03:17:04;1.00;;;0.80;;
73072;SDS011;61260;51.090;-1.786;2022-07-06T03:19:32;2.00;;;0.90;;
73072;SDS011;61260;51.090;-1.786;2022-07-06T03:22:00;1.50;;;0.80;;
73072;SDS011;61260;51.090;-1.786;2022-07-06T03:24:27;2.00;;;0.90;;
73072;SDS011;61260;51.090;-1.786;2022-07-06T03:26:55;2.00;;;1.00;;
73072;SDS011;61260;51.090;-1.786;2022-07-06T03:29:23;1.60;;;0.90;;
73072;SDS011;61260;51.090;-1.786;2022-07-06T03:31:51;1.60;;;0.90;;
73072;SDS011;61260;51.090;-1.786;2022-07-06T03:34:18;2.60;;;1.00;;
73072;SDS011;61260;51.090;-1.786;2022-07-06T03:36:46;1.80;;;1.00;;
73072;SDS011;61260;51.090;-1.786;2022-07-06T03:39:14;2.50;;;0.80;;
73072;SDS011;61260;51.090;-1.786;2022-07-06T03:41:41;1.10;;;0.90;;
73072;SDS011;61260;51.090;-1.786;2022-07-06T03:44:09;1.70;;;1.00;;
73072;SDS011;61260;51.090;-1.786;2022-07-06T03:46:37;1.10;;;0.80;;
73072;SDS011;61260;51.090;-1.786;2022-07-06T03:49:05;1.10;;;0.80;;
73072;SDS011;61260;51.090;-1.786;2022-07-06T03:51:32;1.50;;;0.90;;
73072;SDS011;61260;51.090;-1.786;2022-07-06T03:54:00;3.90;;;1.00;;
73072;SDS011;61260;51.090;-1.786;2022-07-06T03:56:28;2.40;;;0.90;;
73072;SDS011;61260;51.090;-1.786;2022-07-06T03:58:55;1.00;;;0.70;;
73072;SDS011;61260;51.090;-1.786;2022-07-06T04:01:24;2.60;;;0.90;;
73072;SDS011;61260;51.090;-1.786;2022-07-06T04:03:53;1.90;;;0.90;;
73072;SDS011;61260;51.090;-1.786;2022-07-06T04:06:21;1.30;;;0.90;;
73072;SDS011;61260;51.090;-1.786;2022-07-06T04:08:49;2.10;;;1.20;;
73072;SDS011;61260;51.090;-1.786;2022-07-06T04:11:17;2.20;;;1.20;;
73072;SDS011;61260;51.090;-1.786;2022-07-06T04:13:44;2.40;;;1.10;;
73072;SDS011;61260;51.090;-1.786;2022-07-06T04:16:12;2.10;;;0.90;;
73072;SDS011;61260;51.090;-1.786;2022-07-06T04:18:40;1.50;;;0.90;;
73072;SDS011;61260;51.090;-1.786;2022-07-06T04:21:07;2.00;;;1.00;;
73072;SDS011;61260;51.090;-1.786;2022-07-06T04:23:35;2.50;;;1.00;;
73072;SDS011;61260;51.090;-1.786;2022-07-06T04:26:03;1.80;;;1.10;;
73072;SDS011;61260;51.090;-1.786;2022-07-06T04:28:31;0.90;;;0.70;;
73072;SDS011;61260;51.090;-1.786;2022-07-06T04:30:59;1.50;;;1.00;;
73072;SDS011;61260;51.090;-1.786;2022-07-06T04:33:26;2.00;;;0.90;;
73072;SDS011;61260;51.090;-1.786;2022-07-06T04:35:54;1.50;;;0.90;;
73072;SDS011;61260;51.090;-1.786;2022-07-06T04:38:22;2.20;;;1.00;;
73072;SDS011;61260;51.090;-1.786;2022-07-06T04:40:50;1.60;;;1.10;;
73072;SDS011;61260;51.090;-1.786;2022-07-06T04:43:17;1.20;;;1.00;;
73072;SDS011;61260;51.090;-1.786;2022-07-06T04:45:45;2.40;;;1.20;;
73072;SDS011;61260;51.090;-1.786;2022-07-06T04:48:13;3.40;;;1.30;;
73072;SDS011;61260;51.090;-1.786;2022-07-06T04:50:41;2.50;;;1.10;;
73072;SDS011;61260;51.090;-1.786;2022-07-06T04:53:08;2.40;;;1.00;;
73072;SDS011;61260;51.090;-1.786;2022-07-06T04:55:36;2.80;;;1.30;;
73072;SDS011;61260;51.090;-1.786;2022-07-06T04:58:04;3.30;;;1.20;;
73072;SDS011;61260;51.090;-1.786;2022-07-06T05:00:32;1.60;;;1.10;;
73072;SDS011;61260;51.090;-1.786;2022-07-06T05:03:00;1.90;;;1.10;;
73072;SDS011;61260;51.090;-1.786;2022-07-06T05:05:27;2.00;;;0.90;;
73072;SDS011;61260;51.090;-1.786;2022-07-06T05:07:55;2.90;;;1.20;;
73072;SDS011;61260;51.090;-1.786;2022-07-06T05:10:23;2.50;;;1.10;;
73072;SDS011;61260;51.090;-1.786;2022-07-06T05:12:50;3.50;;;1.40;;
73072;SDS011;61260;51.090;-1.786;2022-07-06T05:15:18;3.60;;;1.20;;
73072;SDS011;61260;51.090;-1.786;2022-07-06T05:17:46;2.00;;;1.20;;
73072;SDS011;61260;51.090;-1.786;2022-07-06T05:20:14;2.10;;;1.10;;
73072;SDS011;61260;51.090;-1.786;2022-07-06T05:22:41;2.30;;;1.10;;
73072;SDS011;61260;51.090;-1.786;2022-07-06T05:25:09;2.30;;;0.90;;
73072;SDS011;61260;51.090;-1.786;2022-07-06T05:27:37;3.20;;;1.20;;
73072;SDS011;61260;51.090;-1.786;2022-07-06T05:30:05;2.20;;;1.20;;
73072;SDS011;61260;51.090;-1.786;2022-07-06T05:32:34;4.20;;;1.30;;
73072;SDS011;61260;51.090;-1.786;2022-07-06T05:35:02;1.40;;;1.10;;
73072;SDS011;61260;51.090;-1.786;2022-07-06T05:37:31;1.60;;;1.00;;
73072;SDS011;61260;51.090;-1.786;2022-07-06T05:39:59;1.60;;;1.20;;
73072;SDS011;61260;51.090;-1.786;2022-07-06T05:42:27;1.70;;;1.10;;
73072;SDS011;61260;51.090;-1.786;2022-07-06T05:44:55;2.90;;;1.20;;
73072;SDS011;61260;51.090;-1.786;2022-07-06T05:47:23;2.20;;;1.10;;
73072;SDS011;61260;51.090;-1.786;2022-07-06T05:50:09;1.30;;;0.90;;
73072;SDS011;61260;51.090;-1.786;2022-07-06T05:52:40;2.00;;;1.20;;
73072;SDS011;61260;51.090;-1.786;2022-07-06T05:55:09;1.50;;;1.10;;
73072;SDS011;61260;51.090;-1.786;2022-07-06T05:57:37;3.20;;;1.30;;
73072;SDS011;61260;51.090;-1.786;2022-07-06T06:00:07;2.40;;;1.30;;
73072;SDS011;61260;51.090;-1.786;2022-07-06T06:02:39;2.30;;;1.60;;
73072;SDS011;61260;51.090;-1.786;2022-07-06T06:05:08;2.70;;;1.50;;
73072;SDS011;61260;51.090;-1.786;2022-07-06T06:07:37;2.00;;;1.60;;
73072;SDS011;61260;51.090;-1.786;2022-07-06T06:10:06;1.60;;;1.20;;
73072;SDS011;61260;51.090;-1.786;2022-07-06T06:12:36;4.40;;;1.50;;
73072;SDS011;61260;51.090;-1.786;2022-07-06T06:15:05;2.20;;;1.50;;
73072;SDS011;61260;51.090;-1.786;2022-07-06T06:17:34;2.30;;;1.60;;
73072;SDS011;61260;51.090;-1.786;2022-07-06T06:20:04;1.80;;;1.20;;
73072;SDS011;61260;51.090;-1.786;2022-07-06T06:22:44;2.40;;;1.40;;
73072;SDS011;61260;51.090;-1.786;2022-07-06T06:25:16;1.80;;;1.30;;
73072;SDS011;61260;51.090;-1.786;2022-07-06T06:27:45;2.80;;;1.10;;
73072;SDS011;61260;51.090;-1.786;2022-07-06T06:30:13;2.30;;;1.10;;
73072;SDS011;61260;51.090;-1.786;2022-07-06T06:32:41;1.10;;;0.80;;
73072;SDS011;61260;51.090;-1.786;2022-07-06T06:35:09;2.40;;;1.00;;
73072;SDS011;61260;51.090;-1.786;2022-07-06T06:37:37;1.30;;;1.00;;
73072;SDS011;61260;51.090;-1.786;2022-07-06T06:40:06;1.30;;;1.00;;
73072;SDS011;61260;51.090;-1.786;2022-07-06T06:42:36;3.10;;;0.80;;
73072;SDS011;61260;51.090;-1.786;2022-07-06T06:45:04;1.90;;;0.80;;
73072;SDS011;61260;51.090;-1.786;2022-07-06T06:47:33;1.10;;;0.80;;
73072;SDS011;61260;51.090;-1.786;2022-07-06T06:50:01;1.10;;;0.90;;
73072;SDS011;61260;51.090;-1.786;2022-07-06T06:52:29;1.10;;;0.90;;
73072;SDS011;61260;51.090;-1.786;2022-07-06T06:54:57;1.60;;;0.90;;
73072;SDS011;61260;51.090;-1.786;2022-07-06T06:57:25;1.00;;;0.80;;
73072;SDS011;61260;51.090;-1.786;2022-07-06T06:59:54;1.90;;;0.90;;
73072;SDS011;61260;51.090;-1.786;2022-07-06T07:02:23;3.40;;;0.90;;
73072;SDS011;61260;51.090;-1.786;2022-07-06T07:04:51;1.60;;;0.80;;
73072;SDS011;61260;51.090;-1.786;2022-07-06T07:07:18;3.40;;;0.70;;
73072;SDS011;61260;51.090;-1.786;2022-07-06T07:09:46;1.50;;;0.80;;
73072;SDS011;61260;51.090;-1.786;2022-07-06T07:12:14;1.80;;;0.70;;
73072;SDS011;61260;51.090;-1.786;2022-07-06T07:14:43;1.00;;;0.80;;
73072;SDS011;61260;51.090;-1.786;2022-07-06T07:17:11;2.20;;;0.80;;
73072;SDS011;61260;51.090;-1.786;2022-07-06T07:19:39;1.20;;;0.80;;
73072;SDS011;61260;51.090;-1.786;2022-07-06T07:22:07;2.10;;;0.80;;
73072;SDS011;61260;51.090;-1.786;2022-07-06T07:24:34;1.20;;;0.90;;
73072;SDS011;61260;51.090;-1.786;2022-07-06T07:27:03;1.60;;;0.90;;
73072;SDS011;61260;51.090;-1.786;2022-07-06T07:29:31;1.50;;;0.80;;
73072;SDS011;61260;51.090;-1.786;2022-07-06T07:31:59;1.00;;;0.70;;
73072;SDS011;61260;51.090;-1.786;2022-07-06T07:34:27;1.40;;;0.90;;
73072;SDS011;61260;51.090;-1.786;2022-07-06T07:36:54;1.40;;;0.80;;
73072;SDS011;61260;51.090;-1.786;2022-07-06T07:39:22;1.50;;;0.70;;
73072;SDS011;61260;51.090;-1.786;2022-07-06T07:41:50;1.20;;;0.80;;
73072;SDS011;61260;51.090;-1.786;2022-07-06T07:44:18;1.30;;;0.70;;
73072;SDS011;61260;51.090;-1.786;2022-07-06T07:46:45;1.30;;;0.80;;
73072;SDS011;61260;51.090;-1.786;2022-07-06T07:49:13;1.80;;;0.80;;
73072;SDS011;61260;51.090;-1.786;2022-07-06T07:51:41;3.20;;;0.80;;
73072;SDS011;61260;51.090;-1.786;2022-07-06T07:54:08;1.20;;;0.80;;
73072;SDS011;61260;51.090;-1.786;2022-07-06T07:56:36;4.00;;;0.90;;
73072;SDS011;61260;51.090;-1.786;2022-07-06T07:59:06;1.10;;;0.80;;
73072;SDS011;61260;51.090;-1.786;2022-07-06T08:01:34;0.80;;;0.50;;
73072;SDS011;61260;51.090;-1.786;2022-07-06T08:04:03;1.40;;;0.80;;
73072;SDS011;61260;51.090;-1.786;2022-07-06T08:06:31;1.20;;;1.00;;
73072;SDS011;61260;51.090;-1.786;2022-07-06T08:08:59;1.10;;;0.60;;
73072;SDS011;61260;51.090;-1.786;2022-07-06T08:11:29;3.90;;;2.20;;
73072;SDS011;61260;51.090;-1.786;2022-07-06T08:13:57;2.70;;;1.40;;
73072;SDS011;61260;51.090;-1.786;2022-07-06T08:16:24;1.40;;;0.60;;
73072;SDS011;61260;51.090;-1.786;2022-07-06T08:18:52;9.90;;;3.90;;
73072;SDS011;61260;51.090;-1.786;2022-07-06T08:21:20;3.80;;;2.30;;
73072;SDS011;61260;51.090;-1.786;2022-07-06T08:23:48;3.50;;;0.80;;
73072;SDS011;61260;51.090;-1.786;2022-07-06T08:26:16;0.60;;;0.50;;
73072;SDS011;61260;51.090;-1.786;2022-07-06T08:28:43;0.50;;;0.40;;
73072;SDS011;61260;51.090;-1.786;2022-07-06T08:31:11;1.10;;;0.50;;
73072;SDS011;61260;51.090;-1.786;2022-07-06T08:33:39;1.10;;;0.50;;
73072;SDS011;61260;51.090;-1.786;2022-07-06T08:36:07;0.70;;;0.40;;
73072;SDS011;61260;51.090;-1.786;2022-07-06T08:38:36;2.00;;;0.50;;
73072;SDS011;61260;51.090;-1.786;2022-07-06T08:41:03;1.10;;;0.40;;
73072;SDS011;61260;51.090;-1.786;2022-07-06T08:43:33;0.50;;;0.40;;
73072;SDS011;61260;51.090;-1.786;2022-07-06T08:46:02;0.90;;;0.30;;
73072;SDS011;61260;51.090;-1.786;2022-07-06T08:48:32;0.30;;;0.30;;
73072;SDS011;61260;51.090;-1.786;2022-07-06T08:53:30;0.50;;;0.40;;
73072;SDS011;61260;51.090;-1.786;2022-07-06T08:55:58;0.50;;;0.30;;
73072;SDS011;61260;51.090;-1.786;2022-07-06T08:58:27;1.00;;;0.30;;
73072;SDS011;61260;51.090;-1.786;2022-07-06T09:00:55;1.40;;;0.90;;
73072;SDS011;61260;51.090;-1.786;2022-07-06T09:03:24;1.30;;;0.60;;
73072;SDS011;61260;51.090;-1.786;2022-07-06T09:05:52;0.40;;;0.30;;
73072;SDS011;61260;51.090;-1.786;2022-07-06T09:08:27;0.40;;;0.40;;
73072;SDS011;61260;51.090;-1.786;2022-07-06T09:10:57;1.30;;;0.40;;
73072;SDS011;61260;51.090;-1.786;2022-07-06T09:13:24;0.50;;;0.30;;
73072;SDS011;61260;51.090;-1.786;2022-07-06T09:15:52;0.20;;;0.20;;
73072;SDS011;61260;51.090;-1.786;2022-07-06T09:18:21;0.20;;;0.20;;
73072;SDS011;61260;51.090;-1.786;2022-07-06T09:20:49;0.10;;;0.10;;
73072;SDS011;61260;51.090;-1.786;2022-07-06T09:23:17;0.90;;;0.30;;
73072;SDS011;61260;51.090;-1.786;2022-07-06T09:25:47;0.90;;;0.40;;
73072;SDS011;61260;51.090;-1.786;2022-07-06T09:28:16;0.40;;;0.30;;
73072;SDS011;61260;51.090;-1.786;2022-07-06T09:30:43;0.60;;;0.20;;
73072;SDS011;61260;51.090;-1.786;2022-07-06T09:33:12;0.80;;;0.40;;
73072;SDS011;61260;51.090;-1.786;2022-07-06T09:35:44;1.10;;;0.40;;
73072;SDS011;61260;51.090;-1.786;2022-07-06T09:38:14;0.90;;;0.50;;
73072;SDS011;61260;51.090;-1.786;2022-07-06T09:40:42;0.70;;;0.40;;
73072;SDS011;61260;51.090;-1.786;2022-07-06T09:43:13;0.50;;;0.30;;
73072;SDS011;61260;51.090;-1.786;2022-07-06T09:45:43;1.20;;;0.60;;
73072;SDS011;61260;51.090;-1.786;2022-07-06T09:48:12;0.60;;;0.40;;
73072;SDS011;61260;51.090;-1.786;2022-07-06T09:50:44;0.60;;;0.30;;
73072;SDS011;61260;51.090;-1.786;2022-07-06T09:53:13;2.00;;;0.50;;
73072;SDS011;61260;51.090;-1.786;2022-07-06T09:55:43;0.60;;;0.30;;
73072;SDS011;61260;51.090;-1.786;2022-07-06T09:58:12;1.00;;;0.30;;
73072;SDS011;61260;51.090;-1.786;2022-07-06T10:00:41;0.30;;;0.20;;
73072;SDS011;61260;51.090;-1.786;2022-07-06T10:03:09;0.20;;;0.20;;
73072;SDS011;61260;51.090;-1.786;2022-07-06T10:05:37;0.80;;;0.30;;
73072;SDS011;61260;51.090;-1.786;2022-07-06T10:08:06;0.30;;;0.30;;
73072;SDS011;61260;51.090;-1.786;2022-07-06T10:10:35;1.30;;;0.30;;
73072;SDS011;61260;51.090;-1.786;2022-07-06T10:13:04;0.20;;;0.20;;
73072;SDS011;61260;51.090;-1.786;2022-07-06T10:15:34;1.50;;;0.40;;
73072;SDS011;61260;51.090;-1.786;2022-07-06T10:18:04;0.70;;;0.30;;
73072;SDS011;61260;51.090;-1.786;2022-07-06T10:20:33;0.60;;;0.30;;
73072;SDS011;61260;51.090;-1.786;2022-07-06T10:23:04;0.70;;;0.40;;
73072;SDS011;61260;51.090;-1.786;2022-07-06T10:25:33;0.60;;;0.50;;
73072;SDS011;61260;51.090;-1.786;2022-07-06T10:28:01;3.90;;;0.50;;
73072;SDS011;61260;51.090;-1.786;2022-07-06T10:30:37;1.10;;;0.40;;
73072;SDS011;61260;51.090;-1.786;2022-07-06T10:33:05;2.60;;;0.70;;
73072;SDS011;61260;51.090;-1.786;2022-07-06T10:35:33;1.50;;;0.40;;
73072;SDS011;61260;51.090;-1.786;2022-07-06T10:38:05;2.20;;;0.50;;
73072;SDS011;61260;51.090;-1.786;2022-07-06T10:40:33;0.50;;;0.40;;
73072;SDS011;61260;51.090;-1.786;2022-07-06T10:43:20;0.50;;;0.40;;
73072;SDS011;61260;51.090;-1.786;2022-07-06T10:45:51;3.40;;;0.60;;
73072;SDS011;61260;51.090;-1.786;2022-07-06T10:50:49;2.70;;;0.50;;
73072;SDS011;61260;51.090;-1.786;2022-07-06T10:53:20;0.70;;;0.50;;
73072;SDS011;61260;51.090;-1.786;2022-07-06T10:55:50;0.90;;;0.50;;
73072;SDS011;61260;51.090;-1.786;2022-07-06T11:01:08;0.80;;;0.80;;
73072;SDS011;61260;51.090;-1.786;2022-07-06T11:03:37;3.10;;;0.80;;
73072;SDS011;61260;51.090;-1.786;2022-07-06T11:06:13;1.50;;;0.70;;
73072;SDS011;61260;51.090;-1.786;2022-07-06T11:08:43;0.70;;;0.70;;
73072;SDS011;61260;51.090;-1.786;2022-07-06T11:11:12;1.20;;;0.70;;
73072;SDS011;61260;51.090;-1.786;2022-07-06T11:13:52;1.00;;;0.60;;
73072;SDS011;61260;51.090;-1.786;2022-07-06T11:16:25;0.80;;;0.70;;
73072;SDS011;61260;51.090;-1.786;2022-07-06T11:19:04;1.30;;;0.60;;
73072;SDS011;61260;51.090;-1.786;2022-07-06T11:21:37;0.90;;;0.70;;
73072;SDS011;61260;51.090;-1.786;2022-07-06T11:24:07;1.20;;;0.80;;
73072;SDS011;61260;51.090;-1.786;2022-07-06T11:26:36;0.90;;;0.70;;
73072;SDS011;61260;51.090;-1.786;2022-07-06T11:29:05;1.50;;;0.80;;
73072;SDS011;61260;51.090;-1.786;2022-07-06T11:31:35;1.00;;;0.60;;
73072;SDS011;61260;51.090;-1.786;2022-07-06T11:34:04;1.40;;;0.70;;
73072;SDS011;61260;51.090;-1.786;2022-07-06T11:36:33;1.40;;;0.80;;
73072;SDS011;61260;51.090;-1.786;2022-07-06T11:39:02;1.10;;;0.80;;
73072;SDS011;61260;51.090;-1.786;2022-07-06T11:41:31;1.00;;;0.60;;
73072;SDS011;61260;51.090;-1.786;2022-07-06T11:43:59;1.60;;;0.70;;
73072;SDS011;61260;51.090;-1.786;2022-07-06T11:46:27;1.00;;;0.60;;
73072;SDS011;61260;51.090;-1.786;2022-07-06T11:48:56;1.60;;;0.70;;
73072;SDS011;61260;51.090;-1.786;2022-07-06T11:51:28;1.60;;;0.60;;
73072;SDS011;61260;51.090;-1.786;2022-07-06T11:53:58;0.90;;;0.70;;
73072;SDS011;61260;51.090;-1.786;2022-07-06T11:56:27;0.90;;;0.60;;
73072;SDS011;61260;51.090;-1.786;2022-07-06T11:58:56;0.80;;;0.60;;
73072;SDS011;61260;51.090;-1.786;2022-07-06T12:01:25;2.00;;;0.70;;
73072;SDS011;61260;51.090;-1.786;2022-07-06T12:03:56;1.70;;;0.60;;
73072;SDS011;61260;51.090;-1.786;2022-07-06T12:06:25;0.90;;;0.70;;
73072;SDS011;61260;51.090;-1.786;2022-07-06T12:08:54;1.70;;;0.60;;
73072;SDS011;61260;51.090;-1.786;2022-07-06T12:11:24;0.90;;;0.50;;
73072;SDS011;61260;51.090;-1.786;2022-07-06T12:13:53;0.90;;;0.50;;
73072;SDS011;61260;51.090;-1.786;2022-07-06T12:16:27;2.40;;;0.70;;
73072;SDS011;61260;51.090;-1.786;2022-07-06T12:18:57;0.90;;;0.60;;
73072;SDS011;61260;51.090;-1.786;2022-07-06T12:21:25;1.10;;;0.80;;
73072;SDS011;61260;51.090;-1.786;2022-07-06T12:23:53;1.00;;;0.60;;
73072;SDS011;61260;51.090;-1.786;2022-07-06T12:26:22;1.50;;;0.60;;
73072;SDS011;61260;51.090;-1.786;2022-07-06T12:29:01;0.80;;;0.60;;
73072;SDS011;61260;51.090;-1.786;2022-07-06T12:31:31;2.20;;;0.80;;
73072;SDS011;61260;51.090;-1.786;2022-07-06T12:34:00;2.70;;;0.90;;
73072;SDS011;61260;51.090;-1.786;2022-07-06T12:36:29;1.20;;;0.60;;
73072;SDS011;61260;51.090;-1.786;2022-07-06T12:38:57;1.60;;;0.80;;
73072;SDS011;61260;51.090;-1.786;2022-07-06T12:41:29;1.80;;;0.90;;
73072;SDS011;61260;51.090;-1.786;2022-07-06T12:44:06;1.70;;;0.90;;
73072;SDS011;61260;51.090;-1.786;2022-07-06T12:46:36;1.70;;;0.90;;
73072;SDS011;61260;51.090;-1.786;2022-07-06T12:49:16;2.40;;;1.00;;
73072;SDS011;61260;51.090;-1.786;2022-07-06T12:51:52;1.40;;;1.10;;
73072;SDS011;61260;51.090;-1.786;2022-07-06T12:54:23;3.10;;;1.00;;
73072;SDS011;61260;51.090;-1.786;2022-07-06T12:56:56;1.20;;;1.00;;
73072;SDS011;61260;51.090;-1.786;2022-07-06T12:59:35;2.00;;;1.10;;
73072;SDS011;61260;51.090;-1.786;2022-07-06T13:02:05;2.90;;;0.90;;
73072;SDS011;61260;51.090;-1.786;2022-07-06T13:04:35;2.30;;;0.80;;
73072;SDS011;61260;51.090;-1.786;2022-07-06T13:07:04;1.60;;;0.70;;
73072;SDS011;61260;51.090;-1.786;2022-07-06T13:09:32;2.10;;;0.80;;
73072;SDS011;61260;51.090;-1.786;2022-07-06T13:12:00;1.70;;;0.90;;
73072;SDS011;61260;51.090;-1.786;2022-07-06T13:14:29;1.60;;;0.80;;
73072;SDS011;61260;51.090;-1.786;2022-07-06T13:16:56;1.60;;;0.70;;
73072;SDS011;61260;51.090;-1.786;2022-07-06T13:19:24;1.90;;;0.80;;
73072;SDS011;61260;51.090;-1.786;2022-07-06T13:21:52;1.90;;;0.90;;
73072;SDS011;61260;51.090;-1.786;2022-07-06T13:24:20;1.50;;;0.70;;
73072;SDS011;61260;51.090;-1.786;2022-07-06T13:26:47;1.90;;;0.90;;
73072;SDS011;61260;51.090;-1.786;2022-07-06T13:29:15;1.70;;;0.60;;
73072;SDS011;61260;51.090;-1.786;2022-07-06T13:31:43;1.10;;;0.60;;
73072;SDS011;61260;51.090;-1.786;2022-07-06T13:34:11;1.70;;;0.80;;
73072;SDS011;61260;51.090;-1.786;2022-07-06T13:36:39;1.00;;;0.50;;
73072;SDS011;61260;51.090;-1.786;2022-07-06T13:39:07;5.10;;;0.90;;
73072;SDS011;61260;51.090;-1.786;2022-07-06T13:41:35;3.80;;;0.80;;
73072;SDS011;61260;51.090;-1.786;2022-07-06T13:44:03;1.20;;;0.50;;
73072;SDS011;61260;51.090;-1.786;2022-07-06T13:46:33;4.50;;;0.50;;
73072;SDS011;61260;51.090;-1.786;2022-07-06T13:49:03;3.00;;;0.80;;
73072;SDS011;61260;51.090;-1.786;2022-07-06T13:51:31;1.10;;;0.60;;
73072;SDS011;61260;51.090;-1.786;2022-07-06T13:53:58;1.70;;;0.50;;
73072;SDS011;61260;51.090;-1.786;2022-07-06T13:56:27;1.70;;;0.60;;
73072;SDS011;61260;51.090;-1.786;2022-07-06T13:58:55;1.40;;;0.50;;
73072;SDS011;61260;51.090;-1.786;2022-07-06T14:01:23;0.90;;;0.50;;
73072;SDS011;61260;51.090;-1.786;2022-07-06T14:03:51;2.00;;;0.50;;
73072;SDS011;61260;51.090;-1.786;2022-07-06T14:06:19;1.60;;;0.60;;
73072;SDS011;61260;51.090;-1.786;2022-07-06T14:08:47;1.90;;;0.60;;
73072;SDS011;61260;51.090;-1.786;2022-07-06T14:11:15;1.80;;;0.60;;
73072;SDS011;61260;51.090;-1.786;2022-07-06T14:13:43;6.00;;;0.90;;
73072;SDS011;61260;51.090;-1.786;2022-07-06T14:16:11;4.30;;;0.90;;
73072;SDS011;61260;51.090;-1.786;2022-07-06T14:18:39;3.30;;;0.70;;
73072;SDS011;61260;51.090;-1.786;2022-07-06T14:21:09;1.40;;;0.80;;
73072;SDS011;61260;51.090;-1.786;2022-07-06T14:23:36;1.90;;;0.90;;
73072;SDS011;61260;51.090;-1.786;2022-07-06T14:26:04;2.50;;;0.80;;
73072;SDS011;61260;51.090;-1.786;2022-07-06T14:28:32;1.40;;;0.60;;
73072;SDS011;61260;51.090;-1.786;2022-07-06T14:31:00;2.90;;;0.80;;
73072;SDS011;61260;51.090;-1.786;2022-07-06T14:33:28;3.40;;;1.10;;
73072;SDS011;61260;51.090;-1.786;2022-07-06T14:35:56;2.80;;;1.00;;
73072;SDS011;61260;51.090;-1.786;2022-07-06T14:38:25;1.60;;;0.70;;
73072;SDS011;61260;51.090;-1.786;2022-07-06T14:40:53;1.70;;;0.70;;
73072;SDS011;61260;51.090;-1.786;2022-07-06T14:43:21;2.70;;;0.70;;
73072;SDS011;61260;51.090;-1.786;2022-07-06T14:45:50;1.40;;;0.70;;
73072;SDS011;61260;51.090;-1.786;2022-07-06T14:48:19;2.30;;;0.70;;
73072;SDS011;61260;51.090;-1.786;2022-07-06T14:50:47;1.80;;;0.70;;
73072;SDS011;61260;51.090;-1.786;2022-07-06T14:53:15;2.90;;;0.70;;